sensor_id;sensor_type;location;lat;lon;timestamp;pressure;altitude;pressure_sealevel;temperature;humidity
13709;BME280;54933;51.908;7.730;2024-03-08T00:00:15;101353.59;;;18.42;62.83
13709;BME280;54933;51.908;7.730;2024-03-08T00:02:41;101343.63;;;18.42;62.67
13709;BME280;54933;51.908;7.730;2024-03-08T00:05:07;101341.97;;;18.41;62.63
13709;BME280;54933;51.908;7.730;2024-03-08T00:07:34;101346.31;;;18.42;62.27
13709;BME280;54933;51.908;7.730;2024-03-08T00:09:59;101344.66;;;18.41;62.55
13709;BME280;54933;51.908;7.730;2024-03-08T00:12:25;101341.97;;;18.41;62.46
13709;BME280;54933;51.908;7.730;2024-03-08T00:14:52;101340.94;;;18.42;62.57
13709;BME280;54933;51.908;7.730;2024-03-08T00:17:17;101341.97;;;18.41;62.05
13709;BME280;54933;51.908;7.730;2024-03-08T00:19:43;101335.56;;;18.42;62.40
13709;BME280;54933;51.908;7.730;2024-03-08T00:22:08;101331.22;;;18.41;62.55
13709;BME280;54933;51.908;7.730;2024-03-08T00:24:33;101337.44;;;18.42;62.69
13709;BME280;54933;51.908;7.730;2024-03-08T00:26:59;101330.38;;;18.41;62.21
13709;BME280;54933;51.908;7.730;2024-03-08T00:29:24;101332.88;;;18.42;62.48
13709;BME280;54933;51.908;7.730;2024-03-08T00:31:49;101327.50;;;18.42;62.69
13709;BME280;54933;51.908;7.730;2024-03-08T00:34:15;101328.53;;;18.41;62.38
13709;BME280;54933;51.908;7.730;2024-03-08T00:36:40;101325.81;;;18.41;62.81
13709;BME280;54933;51.908;7.730;2024-03-08T00:39:05;101325.00;;;18.41;62.37
13709;BME280;54933;51.908;7.730;2024-03-08T00:41:33;101331.22;;;18.41;62.18
13709;BME280;54933;51.908;7.730;2024-03-08T00:43:58;101327.50;;;18.42;62.40
13709;BME280;54933;51.908;7.730;2024-03-08T00:46:23;101320.44;;;18.41;62.30
13709;BME280;54933;51.908;7.730;2024-03-08T00:48:49;101325.81;;;18.41;62.20
13709;BME280;54933;51.908;7.730;2024-03-08T00:51:14;101324.13;;;18.40;62.43
13709;BME280;54933;51.908;7.730;2024-03-08T00:53:41;101312.38;;;18.41;62.77
13709;BME280;54933;51.908;7.730;2024-03-08T00:56:08;101315.06;;;18.41;62.63
13709;BME280;54933;51.908;7.730;2024-03-08T00:58:36;101315.06;;;18.41;62.26
13709;BME280;54933;51.908;7.730;2024-03-08T01:01:01;101317.75;;;18.41;62.79
13709;BME280;54933;51.908;7.730;2024-03-08T01:03:27;101314.03;;;18.42;62.30
13709;BME280;54933;51.908;7.730;2024-03-08T01:05:52;101301.63;;;18.41;62.88
13709;BME280;54933;51.908;7.730;2024-03-08T01:08:17;101298.94;;;18.41;62.66
13709;BME280;54933;51.908;7.730;2024-03-08T01:10:43;101293.53;;;18.41;62.70
13709;BME280;54933;51.908;7.730;2024-03-08T01:13:08;101289.16;;;18.40;62.70
13709;BME280;54933;51.908;7.730;2024-03-08T01:15:34;101292.69;;;18.41;62.57
13709;BME280;54933;51.908;7.730;2024-03-08T01:18:00;101290.00;;;18.41;62.61
13709;BME280;54933;51.908;7.730;2024-03-08T01:20:26;101296.22;;;18.41;62.39
13709;BME280;54933;51.908;7.730;2024-03-08T01:22:51;101290.00;;;18.41;62.62
13709;BME280;54933;51.908;7.730;2024-03-08T01:25:17;101283.63;;;18.42;62.59
13709;BME280;54933;51.908;7.730;2024-03-08T01:27:42;101277.41;;;18.41;62.43
13709;BME280;54933;51.908;7.730;2024-03-08T01:30:07;101271.19;;;18.41;62.38
13709;BME280;54933;51.908;7.730;2024-03-08T01:32:34;101272.88;;;18.42;62.33
13709;BME280;54933;51.908;7.730;2024-03-08T01:34:59;101266.63;;;18.41;62.62
13709;BME280;54933;51.908;7.730;2024-03-08T01:37:25;101261.25;;;18.41;62.67
13709;BME280;54933;51.908;7.730;2024-03-08T01:39:50;101269.31;;;18.41;62.54
13709;BME280;54933;51.908;7.730;2024-03-08T01:42:16;101255.88;;;18.41;62.56
13709;BME280;54933;51.908;7.730;2024-03-08T01:44:43;101258.56;;;18.41;62.15
13709;BME280;54933;51.908;7.730;2024-03-08T01:47:09;101257.72;;;18.41;62.14
13709;BME280;54933;51.908;7.730;2024-03-08T01:49:35;101253.19;;;18.41;62.37
13709;BME280;54933;51.908;7.730;2024-03-08T01:52:00;101247.81;;;18.41;62.03
13709;BME280;54933;51.908;7.730;2024-03-08T01:54:26;101234.34;;;18.41;62.14
13709;BME280;54933;51.908;7.730;2024-03-08T01:56:51;101234.34;;;18.41;62.30
13709;BME280;54933;51.908;7.730;2024-03-08T01:59:18;101234.34;;;18.41;62.29
13709;BME280;54933;51.908;7.730;2024-03-08T02:01:44;101224.44;;;18.42;62.11
13709;BME280;54933;51.908;7.730;2024-03-08T02:04:09;101226.28;;;18.41;62.56
13709;BME280;54933;51.908;7.730;2024-03-08T02:06:35;101227.13;;;18.42;62.31
13709;BME280;54933;51.908;7.730;2024-03-08T02:09:00;101234.34;;;18.41;62.48
13709;BME280;54933;51.908;7.730;2024-03-08T02:11:31;101218.22;;;18.41;62.56
13709;BME280;54933;51.908;7.730;2024-03-08T02:13:56;101228.97;;;18.41;61.87
13709;BME280;54933;51.908;7.730;2024-03-08T02:16:22;101228.97;;;18.41;62.01
13709;BME280;54933;51.908;7.730;2024-03-08T02:18:47;101224.44;;;18.42;62.04
13709;BME280;54933;51.908;7.730;2024-03-08T02:21:13;101221.75;;;18.42;62.06
13709;BME280;54933;51.908;7.730;2024-03-08T02:23:43;101219.22;;;18.40;62.33
13709;BME280;54933;51.908;7.730;2024-03-08T02:26:08;101217.16;;;18.42;62.22
13709;BME280;54933;51.908;7.730;2024-03-08T02:28:33;101217.16;;;18.42;61.72
13709;BME280;54933;51.908;7.730;2024-03-08T02:30:59;101212.81;;;18.41;62.05
13709;BME280;54933;51.908;7.730;2024-03-08T02:33:26;101210.97;;;18.42;61.79
13709;BME280;54933;51.908;7.730;2024-03-08T02:35:52;101213.66;;;18.42;61.98
13709;BME280;54933;51.908;7.730;2024-03-08T02:38:19;101207.44;;;18.41;62.06
13709;BME280;54933;51.908;7.730;2024-03-08T02:40:46;101207.44;;;18.41;62.40
13709;BME280;54933;51.908;7.730;2024-03-08T02:43:12;101203.06;;;18.40;61.94
13709;BME280;54933;51.908;7.730;2024-03-08T02:45:38;101202.06;;;18.41;62.07
13709;BME280;54933;51.908;7.730;2024-03-08T02:48:04;101196.69;;;18.41;62.13
13709;BME280;54933;51.908;7.730;2024-03-08T02:50:32;101201.03;;;18.42;62.35
13709;BME280;54933;51.908;7.730;2024-03-08T02:52:57;101202.25;;;18.40;62.16
13709;BME280;54933;51.908;7.730;2024-03-08T02:55:22;101195.66;;;18.42;62.25
13709;BME280;54933;51.908;7.730;2024-03-08T02:57:47;101192.97;;;18.42;62.14
13709;BME280;54933;51.908;7.730;2024-03-08T03:00:13;101191.31;;;18.41;62.02
13709;BME280;54933;51.908;7.730;2024-03-08T03:02:39;101191.31;;;18.41;61.84
13709;BME280;54933;51.908;7.730;2024-03-08T03:05:05;101175.16;;;18.41;62.44
13709;BME280;54933;51.908;7.730;2024-03-08T03:07:33;101175.16;;;18.41;62.25
13709;BME280;54933;51.908;7.730;2024-03-08T03:09:59;101172.47;;;18.41;62.00
13709;BME280;54933;51.908;7.730;2024-03-08T03:12:28;101172.47;;;18.41;61.83
13709;BME280;54933;51.908;7.730;2024-03-08T03:14:53;101171.63;;;18.41;62.07
13709;BME280;54933;51.908;7.730;2024-03-08T03:17:18;101168.94;;;18.41;62.08
13709;BME280;54933;51.908;7.730;2024-03-08T03:19:45;101167.94;;;18.42;62.00
13709;BME280;54933;51.908;7.730;2024-03-08T03:22:11;101159.00;;;18.41;61.92
13709;BME280;54933;51.908;7.730;2024-03-08T03:24:37;101159.00;;;18.41;61.92
13709;BME280;54933;51.908;7.730;2024-03-08T03:27:04;101159.00;;;18.41;61.92
13709;BME280;54933;51.908;7.730;2024-03-08T03:29:36;101159.00;;;18.41;62.24
13709;BME280;54933;51.908;7.730;2024-03-08T03:32:01;101157.16;;;18.42;61.86
13709;BME280;54933;51.908;7.730;2024-03-08T03:34:28;101153.63;;;18.41;62.03
13709;BME280;54933;51.908;7.730;2024-03-08T03:36:54;101151.94;;;18.40;62.35
13709;BME280;54933;51.908;7.730;2024-03-08T03:39:20;101156.31;;;18.41;62.21
13709;BME280;54933;51.908;7.730;2024-03-08T03:41:47;101144.72;;;18.41;62.03
13709;BME280;54933;51.908;7.730;2024-03-08T03:44:15;101148.25;;;18.41;62.07
13709;BME280;54933;51.908;7.730;2024-03-08T03:46:43;101142.88;;;18.41;62.03
13709;BME280;54933;51.908;7.730;2024-03-08T03:49:11;101141.19;;;18.40;61.88
13709;BME280;54933;51.908;7.730;2024-03-08T03:51:37;101126.72;;;18.41;62.22
13709;BME280;54933;51.908;7.730;2024-03-08T03:54:02;101140.19;;;18.41;61.78
13709;BME280;54933;51.908;7.730;2024-03-08T03:56:29;101134.81;;;18.41;61.96
13709;BME280;54933;51.908;7.730;2024-03-08T03:58:54;101132.09;;;18.41;62.06
13709;BME280;54933;51.908;7.730;2024-03-08T04:01:19;101133.97;;;18.41;62.11
13709;BME280;54933;51.908;7.730;2024-03-08T04:03:44;101126.72;;;18.41;61.75
13709;BME280;54933;51.908;7.730;2024-03-08T04:06:10;101140.19;;;18.41;61.91
13709;BME280;54933;51.908;7.730;2024-03-08T04:08:35;101130.25;;;18.42;62.02
13709;BME280;54933;51.908;7.730;2024-03-08T04:11:01;101126.72;;;18.41;61.75
13709;BME280;54933;51.908;7.730;2024-03-08T04:13:26;101127.56;;;18.42;62.22
13709;BME280;54933;51.908;7.730;2024-03-08T04:15:52;101126.72;;;18.41;61.61
13709;BME280;54933;51.908;7.730;2024-03-08T04:18:17;101129.41;;;18.41;62.04
13709;BME280;54933;51.908;7.730;2024-03-08T04:20:45;101115.97;;;18.41;61.82
13709;BME280;54933;51.908;7.730;2024-03-08T04:23:11;101122.19;;;18.42;62.11
13709;BME280;54933;51.908;7.730;2024-03-08T04:25:36;101118.66;;;18.41;61.77
13709;BME280;54933;51.908;7.730;2024-03-08T04:28:01;101114.13;;;18.42;61.59
13709;BME280;54933;51.908;7.730;2024-03-08T04:30:26;101113.28;;;18.41;61.59
13709;BME280;54933;51.908;7.730;2024-03-08T04:32:53;101115.97;;;18.41;61.55
13709;BME280;54933;51.908;7.730;2024-03-08T04:35:19;101121.34;;;18.41;61.80
13709;BME280;54933;51.908;7.730;2024-03-08T04:37:45;101115.97;;;18.41;61.37
13709;BME280;54933;51.908;7.730;2024-03-08T04:40:10;101110.59;;;18.41;61.89
13709;BME280;54933;51.908;7.730;2024-03-08T04:42:37;101113.28;;;18.41;61.50
13709;BME280;54933;51.908;7.730;2024-03-08T04:45:03;101114.94;;;18.42;61.41
13709;BME280;54933;51.908;7.730;2024-03-08T04:47:29;101098.78;;;18.42;61.87
13709;BME280;54933;51.908;7.730;2024-03-08T04:49:54;101106.06;;;18.42;61.94
13709;BME280;54933;51.908;7.730;2024-03-08T04:52:20;101097.13;;;18.41;61.63
13709;BME280;54933;51.908;7.730;2024-03-08T04:54:47;101091.75;;;18.41;62.02
13709;BME280;54933;51.908;7.730;2024-03-08T04:57:12;101093.41;;;18.42;61.90
13709;BME280;54933;51.908;7.730;2024-03-08T04:59:37;101092.75;;;18.40;61.47
13709;BME280;54933;51.908;7.730;2024-03-08T05:02:03;101097.97;;;18.42;61.94
13709;BME280;54933;51.908;7.730;2024-03-08T05:04:28;101089.91;;;18.42;61.77
13709;BME280;54933;51.908;7.730;2024-03-08T05:06:54;101086.38;;;18.41;61.59
13709;BME280;54933;51.908;7.730;2024-03-08T05:09:19;101085.53;;;18.41;62.05
13709;BME280;54933;51.908;7.730;2024-03-08T05:11:45;101078.31;;;18.41;61.38
13709;BME280;54933;51.908;7.730;2024-03-08T05:14:11;101073.75;;;18.42;61.81
13709;BME280;54933;51.908;7.730;2024-03-08T05:16:41;101082.00;;;18.40;61.65
13709;BME280;54933;51.908;7.730;2024-03-08T05:19:06;101072.09;;;18.41;61.68
13709;BME280;54933;51.908;7.730;2024-03-08T05:21:32;101077.47;;;18.41;61.73
13709;BME280;54933;51.908;7.730;2024-03-08T05:23:57;101068.53;;;18.40;61.44
13709;BME280;54933;51.908;7.730;2024-03-08T05:26:22;101069.19;;;18.42;61.17
13709;BME280;54933;51.908;7.730;2024-03-08T05:28:48;101072.91;;;18.41;61.89
13709;BME280;54933;51.908;7.730;2024-03-08T05:31:20;101073.94;;;18.40;61.69
13709;BME280;54933;51.908;7.730;2024-03-08T05:33:48;101071.25;;;18.40;61.38
13709;BME280;54933;51.908;7.730;2024-03-08T05:36:13;101067.53;;;18.41;61.80
13709;BME280;54933;51.908;7.730;2024-03-08T05:38:40;101072.09;;;18.41;61.43
13709;BME280;54933;51.908;7.730;2024-03-08T05:41:07;101072.91;;;18.41;61.74
13709;BME280;54933;51.908;7.730;2024-03-08T05:43:33;101075.63;;;18.41;61.57
13709;BME280;54933;51.908;7.730;2024-03-08T05:45:58;101078.31;;;18.41;61.43
13709;BME280;54933;51.908;7.730;2024-03-08T05:48:23;101070.22;;;18.41;61.45
13709;BME280;54933;51.908;7.730;2024-03-08T05:50:50;101067.53;;;18.41;61.88
13709;BME280;54933;51.908;7.730;2024-03-08T05:53:15;101068.38;;;18.42;61.51
13709;BME280;54933;51.908;7.730;2024-03-08T05:55:40;101065.84;;;18.40;61.37
13709;BME280;54933;51.908;7.730;2024-03-08T05:58:06;101065.84;;;18.40;61.59
13709;BME280;54933;51.908;7.730;2024-03-08T06:00:33;101058.63;;;18.41;61.80
13709;BME280;54933;51.908;7.730;2024-03-08T06:02:58;101064.84;;;18.41;61.89
13709;BME280;54933;51.908;7.730;2024-03-08T06:05:23;101062.16;;;18.41;61.58
13709;BME280;54933;51.908;7.730;2024-03-08T06:07:49;101062.16;;;18.41;61.92
13709;BME280;54933;51.908;7.730;2024-03-08T06:10:15;101062.16;;;18.41;61.35
13709;BME280;54933;51.908;7.730;2024-03-08T06:12:42;101068.38;;;18.42;61.75
13709;BME280;54933;51.908;7.730;2024-03-08T06:15:08;101073.75;;;18.42;61.27
13709;BME280;54933;51.908;7.730;2024-03-08T06:17:37;101074.56;;;18.42;61.53
13709;BME280;54933;51.908;7.730;2024-03-08T06:20:03;101065.84;;;18.40;61.22
13709;BME280;54933;51.908;7.730;2024-03-08T06:22:29;101065.69;;;18.42;61.13
13709;BME280;54933;51.908;7.730;2024-03-08T06:24:55;101065.69;;;18.42;61.58
13709;BME280;54933;51.908;7.730;2024-03-08T06:27:21;101066.50;;;18.42;61.24
13709;BME280;54933;51.908;7.730;2024-03-08T06:29:46;101062.16;;;18.41;61.35
13709;BME280;54933;51.908;7.730;2024-03-08T06:32:14;101064.84;;;18.41;61.52
13709;BME280;54933;51.908;7.730;2024-03-08T06:34:40;101063.00;;;18.42;61.15
13709;BME280;54933;51.908;7.730;2024-03-08T06:37:06;101059.47;;;18.41;61.83
13709;BME280;54933;51.908;7.730;2024-03-08T06:39:31;101063.81;;;18.42;61.52
13709;BME280;54933;51.908;7.730;2024-03-08T06:41:57;101062.16;;;18.41;61.36
13709;BME280;54933;51.908;7.730;2024-03-08T06:44:22;101054.09;;;18.41;61.54
13709;BME280;54933;51.908;7.730;2024-03-08T06:46:48;101054.94;;;18.42;61.38
13709;BME280;54933;51.908;7.730;2024-03-08T06:49:13;101054.09;;;18.41;61.50
13709;BME280;54933;51.908;7.730;2024-03-08T06:51:40;101050.56;;;18.41;61.08
13709;BME280;54933;51.908;7.730;2024-03-08T06:54:06;101055.09;;;18.40;61.15
13709;BME280;54933;51.908;7.730;2024-03-08T06:56:34;101049.72;;;18.40;61.54
13709;BME280;54933;51.908;7.730;2024-03-08T06:58:59;101054.09;;;18.41;61.26
13709;BME280;54933;51.908;7.730;2024-03-08T07:01:24;101053.06;;;18.42;61.42
13709;BME280;54933;51.908;7.730;2024-03-08T07:03:49;101051.41;;;18.41;61.19
13709;BME280;54933;51.908;7.730;2024-03-08T07:06:17;101059.47;;;18.41;61.35
13709;BME280;54933;51.908;7.730;2024-03-08T07:08:44;101061.13;;;18.42;61.59
13709;BME280;54933;51.908;7.730;2024-03-08T07:11:11;101054.09;;;18.41;61.36
13709;BME280;54933;51.908;7.730;2024-03-08T07:13:37;101051.41;;;18.41;61.19
13709;BME280;54933;51.908;7.730;2024-03-08T07:16:04;101057.63;;;18.42;61.29
13709;BME280;54933;51.908;7.730;2024-03-08T07:18:29;101056.78;;;18.41;61.22
13709;BME280;54933;51.908;7.730;2024-03-08T07:20:55;101057.63;;;18.42;61.46
13709;BME280;54933;51.908;7.730;2024-03-08T07:23:20;101056.78;;;18.41;61.05
13709;BME280;54933;51.908;7.730;2024-03-08T07:26:04;101055.75;;;18.42;61.31
13709;BME280;54933;51.908;7.730;2024-03-08T07:28:29;101056.78;;;18.41;60.97
13709;BME280;54933;51.908;7.730;2024-03-08T07:30:56;101061.31;;;18.41;61.19
13709;BME280;54933;51.908;7.730;2024-03-08T07:33:34;101051.41;;;18.41;61.43
13709;BME280;54933;51.908;7.730;2024-03-08T07:36:00;101051.41;;;18.41;61.08
13709;BME280;54933;51.908;7.730;2024-03-08T07:38:26;101051.41;;;18.41;61.38
13709;BME280;54933;51.908;7.730;2024-03-08T07:40:51;101050.56;;;18.41;61.59
13709;BME280;54933;51.908;7.730;2024-03-08T07:43:17;101052.41;;;18.40;61.13
13709;BME280;54933;51.908;7.730;2024-03-08T07:45:42;101051.41;;;18.41;60.90
13709;BME280;54933;51.908;7.730;2024-03-08T07:48:08;101043.31;;;18.41;61.18
13709;BME280;54933;51.908;7.730;2024-03-08T07:50:39;101051.41;;;18.41;61.45
13709;BME280;54933;51.908;7.730;2024-03-08T07:53:05;101052.25;;;18.42;61.57
13709;BME280;54933;51.908;7.730;2024-03-08T07:55:33;101046.03;;;18.41;61.59
13709;BME280;54933;51.908;7.730;2024-03-08T07:58:00;101045.19;;;18.41;61.61
13709;BME280;54933;51.908;7.730;2024-03-08T08:00:25;101048.72;;;18.41;61.18
13709;BME280;54933;51.908;7.730;2024-03-08T08:02:53;101045.19;;;18.41;61.30
13709;BME280;54933;51.908;7.730;2024-03-08T08:05:18;101041.47;;;18.42;61.13
13709;BME280;54933;51.908;7.730;2024-03-08T08:07:46;101038.78;;;18.42;61.14
13709;BME280;54933;51.908;7.730;2024-03-08T08:10:12;101042.28;;;18.42;61.23
13709;BME280;54933;51.908;7.730;2024-03-08T08:12:43;101029.88;;;18.41;60.90
13709;BME280;54933;51.908;7.730;2024-03-08T08:15:09;101039.59;;;18.42;61.34
13709;BME280;54933;51.908;7.730;2024-03-08T08:17:34;101031.53;;;18.42;61.35
13709;BME280;54933;51.908;7.730;2024-03-08T08:20:00;101024.50;;;18.41;61.10
13709;BME280;54933;51.908;7.730;2024-03-08T08:22:25;101023.47;;;18.42;60.94
13709;BME280;54933;51.908;7.730;2024-03-08T08:24:50;101023.47;;;18.42;61.10
13709;BME280;54933;51.908;7.730;2024-03-08T08:27:17;101016.41;;;18.41;61.15
13709;BME280;54933;51.908;7.730;2024-03-08T08:29:42;101016.22;;;18.43;60.92
13709;BME280;54933;51.908;7.730;2024-03-08T08:32:08;101012.69;;;18.42;60.82
13709;BME280;54933;51.908;7.730;2024-03-08T08:34:33;101009.19;;;18.42;61.33
13709;BME280;54933;51.908;7.730;2024-03-08T08:36:59;101011.03;;;18.41;61.25
13709;BME280;54933;51.908;7.730;2024-03-08T08:39:24;101010.84;;;18.43;60.90
13709;BME280;54933;51.908;7.730;2024-03-08T08:41:51;101010.00;;;18.42;61.37
13709;BME280;54933;51.908;7.730;2024-03-08T08:44:16;101006.31;;;18.43;61.34
13709;BME280;54933;51.908;7.730;2024-03-08T08:46:41;100993.06;;;18.42;61.07
13709;BME280;54933;51.908;7.730;2024-03-08T08:49:07;100996.56;;;18.42;61.23
13709;BME280;54933;51.908;7.730;2024-03-08T08:51:35;100996.56;;;18.42;61.00
13709;BME280;54933;51.908;7.730;2024-03-08T08:54:01;101004.63;;;18.42;60.92
13709;BME280;54933;51.908;7.730;2024-03-08T08:56:27;100986.63;;;18.43;61.23
13709;BME280;54933;51.908;7.730;2024-03-08T08:58:53;100986.63;;;18.43;60.97
13709;BME280;54933;51.908;7.730;2024-03-08T09:01:19;100984.13;;;18.41;61.18
13709;BME280;54933;51.908;7.730;2024-03-08T09:03:45;100981.25;;;18.43;61.35
13709;BME280;54933;51.908;7.730;2024-03-08T09:06:11;100979.41;;;18.43;61.25
13709;BME280;54933;51.908;7.730;2024-03-08T09:08:38;100977.72;;;18.42;60.90
13709;BME280;54933;51.908;7.730;2024-03-08T09:11:03;100973.19;;;18.43;61.23
13709;BME280;54933;51.908;7.730;2024-03-08T09:13:29;100975.03;;;18.42;61.16
13709;BME280;54933;51.908;7.730;2024-03-08T09:15:54;100972.34;;;18.42;60.91
13709;BME280;54933;51.908;7.730;2024-03-08T09:18:19;100966.97;;;18.42;60.99
13709;BME280;54933;51.908;7.730;2024-03-08T09:20:45;100960.56;;;18.43;61.30
13709;BME280;54933;51.908;7.730;2024-03-08T09:23:11;100966.97;;;18.42;60.86
13709;BME280;54933;51.908;7.730;2024-03-08T09:25:36;100957.88;;;18.43;61.17
13709;BME280;54933;51.908;7.730;2024-03-08T09:28:02;100956.19;;;18.42;61.13
13709;BME280;54933;51.908;7.730;2024-03-08T09:30:28;100944.44;;;18.43;60.94
13709;BME280;54933;51.908;7.730;2024-03-08T09:32:53;100940.91;;;18.43;61.10
13709;BME280;54933;51.908;7.730;2024-03-08T09:35:19;100940.91;;;18.43;61.01
13709;BME280;54933;51.908;7.730;2024-03-08T09:37:44;100936.34;;;18.43;61.29
13709;BME280;54933;51.908;7.730;2024-03-08T09:40:12;100925.59;;;18.43;61.42
13709;BME280;54933;51.908;7.730;2024-03-08T09:42:41;100928.28;;;18.43;60.94
13709;BME280;54933;51.908;7.730;2024-03-08T09:45:09;100925.59;;;18.43;61.36
13709;BME280;54933;51.908;7.730;2024-03-08T09:47:44;100914.84;;;18.43;61.46
13709;BME280;54933;51.908;7.730;2024-03-08T09:50:10;100912.94;;;18.44;61.31
13709;BME280;54933;51.908;7.730;2024-03-08T09:52:38;100914.84;;;18.43;60.88
13709;BME280;54933;51.908;7.730;2024-03-08T09:55:09;100911.09;;;18.44;60.84
13709;BME280;54933;51.908;7.730;2024-03-08T09:57:36;100909.44;;;18.43;61.01
13709;BME280;54933;51.908;7.730;2024-03-08T10:00:03;100904.06;;;18.43;61.13
13709;BME280;54933;51.908;7.730;2024-03-08T10:02:36;100894.97;;;18.44;61.57
13709;BME280;54933;51.908;7.730;2024-03-08T10:05:02;100907.38;;;18.45;61.06
13709;BME280;54933;51.908;7.730;2024-03-08T10:07:28;100896.00;;;18.43;61.68
13709;BME280;54933;51.908;7.730;2024-03-08T10:09:53;100888.53;;;18.45;61.42
13709;BME280;54933;51.908;7.730;2024-03-08T10:12:19;100889.56;;;18.44;61.50
13709;BME280;54933;51.908;7.730;2024-03-08T10:14:45;100889.56;;;18.44;61.51
13709;BME280;54933;51.908;7.730;2024-03-08T10:17:11;100882.53;;;18.43;61.47
13709;BME280;54933;51.908;7.730;2024-03-08T10:19:36;100881.50;;;18.44;61.79
13709;BME280;54933;51.908;7.730;2024-03-08T10:22:02;100874.47;;;18.43;61.45
13709;BME280;54933;51.908;7.730;2024-03-08T10:24:29;100865.38;;;18.44;61.52
13709;BME280;54933;51.908;7.730;2024-03-08T10:27:01;100862.69;;;18.44;61.98
13709;BME280;54933;51.908;7.730;2024-03-08T10:29:30;100858.13;;;18.45;61.51
13709;BME280;54933;51.908;7.730;2024-03-08T10:31:55;100861.63;;;18.45;62.00
13709;BME280;54933;51.908;7.730;2024-03-08T10:34:22;100852.75;;;18.45;61.77
13709;BME280;54933;51.908;7.730;2024-03-08T10:36:50;100851.91;;;18.44;61.89
13709;BME280;54933;51.908;7.730;2024-03-08T10:39:23;100851.91;;;18.44;61.45
13709;BME280;54933;51.908;7.730;2024-03-08T10:41:58;100853.38;;;18.47;61.42
13709;BME280;54933;51.908;7.730;2024-03-08T10:47:03;100848.19;;;18.45;61.72
13709;BME280;54933;51.908;7.730;2024-03-08T10:49:38;100843.63;;;18.46;61.94
13709;BME280;54933;51.908;7.730;2024-03-08T10:52:04;100836.63;;;18.45;61.44
13709;BME280;54933;51.908;7.730;2024-03-08T10:54:33;100832.03;;;18.45;61.99
13709;BME280;54933;51.908;7.730;2024-03-08T10:56:59;100827.50;;;18.46;61.96
13709;BME280;54933;51.908;7.730;2024-03-08T10:59:26;100823.97;;;18.45;61.61
13709;BME280;54933;51.908;7.730;2024-03-08T11:01:53;100817.56;;;18.46;61.97
13709;BME280;54933;51.908;7.730;2024-03-08T11:04:18;100818.38;;;18.47;62.02
13709;BME280;54933;51.908;7.730;2024-03-08T11:06:48;100806.81;;;18.46;62.07
13709;BME280;54933;51.908;7.730;2024-03-08T11:09:30;100813.84;;;18.47;61.75
13709;BME280;54933;51.908;7.730;2024-03-08T11:14:48;100798.53;;;18.48;61.95
13709;BME280;54933;51.908;7.730;2024-03-08T11:17:44;100796.88;;;18.47;61.95
13709;BME280;54933;51.908;7.730;2024-03-08T11:20:14;100794.00;;;18.48;61.86
13709;BME280;54933;51.908;7.730;2024-03-08T11:22:52;100782.41;;;18.48;61.53
13709;BME280;54933;51.908;7.730;2024-03-08T11:25:37;100778.88;;;18.47;61.97
13709;BME280;54933;51.908;7.730;2024-03-08T11:28:23;100780.56;;;18.48;62.08
13709;BME280;54933;51.908;7.730;2024-03-08T11:33:28;100771.63;;;18.48;61.63
13709;BME280;54933;51.908;7.730;2024-03-08T11:36:08;100761.72;;;18.48;61.91
13709;BME280;54933;51.908;7.730;2024-03-08T11:38:40;100764.41;;;18.48;62.05
13709;BME280;54933;51.908;7.730;2024-03-08T11:41:06;100759.03;;;18.48;62.11
13709;BME280;54933;51.908;7.730;2024-03-08T11:43:32;100756.34;;;18.48;61.57
13709;BME280;54933;51.908;7.730;2024-03-08T11:46:08;100749.06;;;18.49;62.28
13709;BME280;54933;51.908;7.730;2024-03-08T11:48:33;100760.66;;;18.49;62.11
13709;BME280;54933;51.908;7.730;2024-03-08T11:51:01;100746.59;;;18.47;61.41
13709;BME280;54933;51.908;7.730;2024-03-08T11:53:26;100743.69;;;18.49;61.84
13709;BME280;54933;51.908;7.730;2024-03-08T11:55:52;100743.69;;;18.49;62.14
13709;BME280;54933;51.908;7.730;2024-03-08T11:58:17;100747.22;;;18.49;62.09
13709;BME280;54933;51.908;7.730;2024-03-08T12:00:43;100732.72;;;18.50;62.17
13709;BME280;54933;51.908;7.730;2024-03-08T12:03:11;100723.84;;;18.50;62.29
13709;BME280;54933;51.908;7.730;2024-03-08T12:05:37;100723.00;;;18.49;62.17
13709;BME280;54933;51.908;7.730;2024-03-08T12:08:03;100726.53;;;18.50;62.04
13709;BME280;54933;51.908;7.730;2024-03-08T12:10:32;100721.16;;;18.50;61.75
13709;BME280;54933;51.908;7.730;2024-03-08T12:12:58;100710.38;;;18.50;62.13
13709;BME280;54933;51.908;7.730;2024-03-08T12:15:28;100709.56;;;18.49;62.13
13709;BME280;54933;51.908;7.730;2024-03-08T12:17:55;100698.78;;;18.49;61.91
13709;BME280;54933;51.908;7.730;2024-03-08T12:20:22;100697.75;;;18.50;61.80
13709;BME280;54933;51.908;7.730;2024-03-08T12:22:49;100705.81;;;18.50;62.05
13709;BME280;54933;51.908;7.730;2024-03-08T12:25:17;100692.38;;;18.50;62.00
13709;BME280;54933;51.908;7.730;2024-03-08T12:27:43;100687.81;;;18.51;61.90
13709;BME280;54933;51.908;7.730;2024-03-08T12:30:20;100684.28;;;18.50;62.24
13709;BME280;54933;51.908;7.730;2024-03-08T12:32:51;100684.28;;;18.50;61.69
13709;BME280;54933;51.908;7.730;2024-03-08T12:35:19;100667.34;;;18.50;61.77
13709;BME280;54933;51.908;7.730;2024-03-08T12:37:48;100660.06;;;18.50;61.79
13709;BME280;54933;51.908;7.730;2024-03-08T12:40:14;100664.44;;;18.51;61.65
13709;BME280;54933;51.908;7.730;2024-03-08T12:42:42;100660.06;;;18.50;61.79
13709;BME280;54933;51.908;7.730;2024-03-08T12:45:08;100653.69;;;18.51;62.13
13709;BME280;54933;51.908;7.730;2024-03-08T12:47:35;100642.09;;;18.51;61.96
13709;BME280;54933;51.908;7.730;2024-03-08T12:50:00;100641.25;;;18.50;62.25
13709;BME280;54933;51.908;7.730;2024-03-08T12:52:26;100637.53;;;18.51;61.88
13709;BME280;54933;51.908;7.730;2024-03-08T12:54:51;100637.53;;;18.51;62.36